sensor_id;sensor_type;location;lat;lon;timestamp;P1;durP1;ratioP1;P2;durP2;ratioP2
29934;SDS011;19905;53.370;-6.314;2023-02-01T00:01:48;28.52;;;3.90;;
29934;SDS011;19905;53.370;-6.314;2023-02-01T00:04:17;30.60;;;4.28;;
29934;SDS011;19905;53.370;-6.314;2023-02-01T00:06:45;30.90;;;4.35;;
29934;SDS011;19905;53.370;-6.314;2023-02-01T00:09:14;23.85;;;3.45;;
29934;SDS011;19905;53.370;-6.314;2023-02-01T00:11:43;29.83;;;4.00;;
29934;SDS011;19905;53.370;-6.314;2023-02-01T00:14:14;30.13;;;4.07;;
29934;SDS011;19905;53.370;-6.314;2023-02-01T00:16:43;22.73;;;3.67;;
29934;SDS011;19905;53.370;-6.314;2023-02-01T00:19:13;19.55;;;3.45;;
29934;SDS011;19905;53.370;-6.314;2023-02-01T00:21:42;22.27;;;3.88;;
29934;SDS011;19905;53.370;-6.314;2023-02-01T00:24:12;28.40;;;4.65;;
29934;SDS011;19905;53.370;-6.314;2023-02-01T00:26:41;21.75;;;3.67;;
29934;SDS011;19905;53.370;-6.314;2023-02-01T00:29:14;25.55;;;3.35;;
29934;SDS011;19905;53.370;-6.314;2023-02-01T00:31:44;27.55;;;3.65;;
29934;SDS011;19905;53.370;-6.314;2023-02-01T00:34:14;35.78;;;3.90;;
29934;SDS011;19905;53.370;-6.314;2023-02-01T00:36:44;25.45;;;3.10;;
29934;SDS011;19905;53.370;-6.314;2023-02-01T00:39:15;24.08;;;3.25;;
29934;SDS011;19905;53.370;-6.314;2023-02-01T00:41:44;29.38;;;3.65;;
29934;SDS011;19905;53.370;-6.314;2023-02-01T00:44:14;22.80;;;2.58;;
29934;SDS011;19905;53.370;-6.314;2023-02-01T00:46:43;24.10;;;3.35;;
29934;SDS011;19905;53.370;-6.314;2023-02-01T00:49:11;30.02;;;4.05;;
29934;SDS011;19905;53.370;-6.314;2023-02-01T00:51:40;34.45;;;3.53;;
29934;SDS011;19905;53.370;-6.314;2023-02-01T00:54:09;29.08;;;3.70;;
29934;SDS011;19905;53.370;-6.314;2023-02-01T00:56:37;27.10;;;3.72;;
29934;SDS011;19905;53.370;-6.314;2023-02-01T00:59:10;23.92;;;2.35;;
29934;SDS011;19905;53.370;-6.314;2023-02-01T01:01:41;27.48;;;3.20;;
29934;SDS011;19905;53.370;-6.314;2023-02-01T01:04:10;28.70;;;3.00;;
29934;SDS011;19905;53.370;-6.314;2023-02-01T01:06:39;24.48;;;3.30;;
29934;SDS011;19905;53.370;-6.314;2023-02-01T01:09:07;20.05;;;2.78;;
29934;SDS011;19905;53.370;-6.314;2023-02-01T01:11:37;13.63;;;2.60;;
29934;SDS011;19905;53.370;-6.314;2023-02-01T01:14:07;23.73;;;3.30;;
29934;SDS011;19905;53.370;-6.314;2023-02-01T01:16:37;27.10;;;2.95;;
29934;SDS011;19905;53.370;-6.314;2023-02-01T01:19:07;19.02;;;2.83;;
29934;SDS011;19905;53.370;-6.314;2023-02-01T01:21:35;14.95;;;2.20;;
29934;SDS011;19905;53.370;-6.314;2023-02-01T01:24:05;21.35;;;2.40;;
29934;SDS011;19905;53.370;-6.314;2023-02-01T01:26:34;18.02;;;3.10;;
29934;SDS011;19905;53.370;-6.314;2023-02-01T01:29:03;19.83;;;3.10;;
29934;SDS011;19905;53.370;-6.314;2023-02-01T01:31:32;18.77;;;2.70;;
29934;SDS011;19905;53.370;-6.314;2023-02-01T01:34:00;14.95;;;2.28;;
29934;SDS011;19905;53.370;-6.314;2023-02-01T01:36:30;23.88;;;3.20;;
29934;SDS011;19905;53.370;-6.314;2023-02-01T01:38:59;19.20;;;3.28;;
29934;SDS011;19905;53.370;-6.314;2023-02-01T01:41:28;26.52;;;3.38;;
29934;SDS011;19905;53.370;-6.314;2023-02-01T01:44:00;22.38;;;3.30;;
29934;SDS011;19905;53.370;-6.314;2023-02-01T01:46:31;29.10;;;4.25;;
29934;SDS011;19905;53.370;-6.314;2023-02-01T01:49:04;28.45;;;3.08;;
29934;SDS011;19905;53.370;-6.314;2023-02-01T01:51:39;24.88;;;3.85;;
29934;SDS011;19905;53.370;-6.314;2023-02-01T01:54:12;29.08;;;3.28;;
29934;SDS011;19905;53.370;-6.314;2023-02-01T01:56:45;28.05;;;3.50;;
29934;SDS011;19905;53.370;-6.314;2023-02-01T01:59:18;35.35;;;3.55;;
29934;SDS011;19905;53.370;-6.314;2023-02-01T02:01:48;26.98;;;3.05;;
29934;SDS011;19905;53.370;-6.314;2023-02-01T02:04:17;25.08;;;3.38;;
29934;SDS011;19905;53.370;-6.314;2023-02-01T02:06:50;22.35;;;3.13;;
29934;SDS011;19905;53.370;-6.314;2023-02-01T02:09:22;25.25;;;3.20;;
29934;SDS011;19905;53.370;-6.314;2023-02-01T02:11:51;30.42;;;3.80;;
29934;SDS011;19905;53.370;-6.314;2023-02-01T02:14:20;30.88;;;3.95;;
29934;SDS011;19905;53.370;-6.314;2023-02-01T02:20:01;23.83;;;3.90;;
29934;SDS011;19905;53.370;-6.314;2023-02-01T02:26:28;25.50;;;3.35;;
29934;SDS011;19905;53.370;-6.314;2023-02-01T02:29:21;34.30;;;4.43;;
29934;SDS011;19905;53.370;-6.314;2023-02-01T02:32:21;21.08;;;2.95;;
29934;SDS011;19905;53.370;-6.314;2023-02-01T02:35:12;24.50;;;4.00;;
29934;SDS011;19905;53.370;-6.314;2023-02-01T02:37:56;23.70;;;4.22;;
29934;SDS011;19905;53.370;-6.314;2023-02-01T02:40:35;27.73;;;3.47;;
29934;SDS011;19905;53.370;-6.314;2023-02-01T02:43:12;31.10;;;4.00;;
29934;SDS011;19905;53.370;-6.314;2023-02-01T02:46:07;31.50;;;4.10;;
29934;SDS011;19905;53.370;-6.314;2023-02-01T02:49:08;21.35;;;3.85;;
29934;SDS011;19905;53.370;-6.314;2023-02-01T02:51:50;28.17;;;3.67;;
29934;SDS011;19905;53.370;-6.314;2023-02-01T02:54:40;24.52;;;3.80;;
29934;SDS011;19905;53.370;-6.314;2023-02-01T02:57:19;30.38;;;4.47;;
29934;SDS011;19905;53.370;-6.314;2023-02-01T03:00:08;23.55;;;3.55;;
29934;SDS011;19905;53.370;-6.314;2023-02-01T03:02:58;39.40;;;4.70;;
29934;SDS011;19905;53.370;-6.314;2023-02-01T03:05:44;31.25;;;3.60;;
29934;SDS011;19905;53.370;-6.314;2023-02-01T03:08:15;30.48;;;3.70;;
29934;SDS011;19905;53.370;-6.314;2023-02-01T03:10:51;27.25;;;3.55;;
29934;SDS011;19905;53.370;-6.314;2023-02-01T03:13:27;31.55;;;4.18;;
29934;SDS011;19905;53.370;-6.314;2023-02-01T03:16:01;37.67;;;4.25;;
29934;SDS011;19905;53.370;-6.314;2023-02-01T03:18:36;32.10;;;3.92;;
29934;SDS011;19905;53.370;-6.314;2023-02-01T03:21:12;28.70;;;3.47;;
29934;SDS011;19905;53.370;-6.314;2023-02-01T03:23:47;26.27;;;3.50;;
29934;SDS011;19905;53.370;-6.314;2023-02-01T03:26:17;25.50;;;3.47;;
29934;SDS011;19905;53.370;-6.314;2023-02-01T03:28:49;19.67;;;3.10;;
29934;SDS011;19905;53.370;-6.314;2023-02-01T03:31:23;43.92;;;3.92;;
29934;SDS011;19905;53.370;-6.314;2023-02-01T03:33:53;32.60;;;3.95;;
29934;SDS011;19905;53.370;-6.314;2023-02-01T03:36:24;30.98;;;4.15;;
29934;SDS011;19905;53.370;-6.314;2023-02-01T03:39:00;25.58;;;3.90;;
29934;SDS011;19905;53.370;-6.314;2023-02-01T03:41:35;28.70;;;5.30;;
29934;SDS011;19905;53.370;-6.314;2023-02-01T03:44:11;30.50;;;4.22;;
29934;SDS011;19905;53.370;-6.314;2023-02-01T03:46:44;25.35;;;3.47;;
29934;SDS011;19905;53.370;-6.314;2023-02-01T03:49:18;33.72;;;3.70;;
29934;SDS011;19905;53.370;-6.314;2023-02-01T03:51:52;30.13;;;3.38;;
29934;SDS011;19905;53.370;-6.314;2023-02-01T03:54:27;28.95;;;3.53;;
29934;SDS011;19905;53.370;-6.314;2023-02-01T03:56:59;28.55;;;2.90;;
29934;SDS011;19905;53.370;-6.314;2023-02-01T03:59:31;22.45;;;3.72;;
29934;SDS011;19905;53.370;-6.314;2023-02-01T04:01:59;28.23;;;4.55;;
29934;SDS011;19905;53.370;-6.314;2023-02-01T04:04:29;25.75;;;4.45;;
29934;SDS011;19905;53.370;-6.314;2023-02-01T04:06:58;31.15;;;3.47;;
29934;SDS011;19905;53.370;-6.314;2023-02-01T04:09:28;24.67;;;3.13;;
29934;SDS011;19905;53.370;-6.314;2023-02-01T04:11:57;22.92;;;3.05;;
29934;SDS011;19905;53.370;-6.314;2023-02-01T04:14:26;36.38;;;4.03;;
29934;SDS011;19905;53.370;-6.314;2023-02-01T04:16:55;31.75;;;4.22;;
29934;SDS011;19905;53.370;-6.314;2023-02-01T04:19:25;27.60;;;3.20;;
29934;SDS011;19905;53.370;-6.314;2023-02-01T04:21:54;24.95;;;3.28;;
29934;SDS011;19905;53.370;-6.314;2023-02-01T04:24:24;29.40;;;3.50;;
29934;SDS011;19905;53.370;-6.314;2023-02-01T04:26:54;30.00;;;3.70;;
29934;SDS011;19905;53.370;-6.314;2023-02-01T04:29:22;24.60;;;3.72;;
29934;SDS011;19905;53.370;-6.314;2023-02-01T04:31:51;25.30;;;3.92;;
29934;SDS011;19905;53.370;-6.314;2023-02-01T04:34:20;27.48;;;2.90;;
29934;SDS011;19905;53.370;-6.314;2023-02-01T04:36:52;27.17;;;3.22;;
29934;SDS011;19905;53.370;-6.314;2023-02-01T04:39:21;25.65;;;3.78;;
29934;SDS011;19905;53.370;-6.314;2023-02-01T04:41:49;18.75;;;2.50;;
29934;SDS011;19905;53.370;-6.314;2023-02-01T04:44:20;19.33;;;2.67;;
29934;SDS011;19905;53.370;-6.314;2023-02-01T04:46:54;24.60;;;2.95;;
29934;SDS011;19905;53.370;-6.314;2023-02-01T04:49:24;33.33;;;3.50;;
29934;SDS011;19905;53.370;-6.314;2023-02-01T04:51:53;29.75;;;3.13;;
29934;SDS011;19905;53.370;-6.314;2023-02-01T04:54:23;26.70;;;3.35;;
29934;SDS011;19905;53.370;-6.314;2023-02-01T04:56:52;26.35;;;3.90;;
29934;SDS011;19905;53.370;-6.314;2023-02-01T04:59:23;24.63;;;2.83;;
29934;SDS011;19905;53.370;-6.314;2023-02-01T05:01:51;22.35;;;3.33;;
29934;SDS011;19905;53.370;-6.314;2023-02-01T05:04:20;25.65;;;3.20;;
29934;SDS011;19905;53.370;-6.314;2023-02-01T05:06:49;23.58;;;3.35;;
29934;SDS011;19905;53.370;-6.314;2023-02-01T05:09:17;19.20;;;3.47;;
29934;SDS011;19905;53.370;-6.314;2023-02-01T05:11:47;22.80;;;3.47;;
29934;SDS011;19905;53.370;-6.314;2023-02-01T05:14:35;28.50;;;3.13;;
29934;SDS011;19905;53.370;-6.314;2023-02-01T05:17:03;34.10;;;4.55;;
29934;SDS011;19905;53.370;-6.314;2023-02-01T05:19:33;21.63;;;2.72;;
29934;SDS011;19905;53.370;-6.314;2023-02-01T05:22:02;27.65;;;3.30;;
29934;SDS011;19905;53.370;-6.314;2023-02-01T05:24:32;29.95;;;3.47;;
29934;SDS011;19905;53.370;-6.314;2023-02-01T05:27:00;36.67;;;3.95;;
29934;SDS011;19905;53.370;-6.314;2023-02-01T05:29:29;18.38;;;2.60;;
29934;SDS011;19905;53.370;-6.314;2023-02-01T05:31:59;19.77;;;3.05;;
29934;SDS011;19905;53.370;-6.314;2023-02-01T05:34:47;31.67;;;3.50;;
29934;SDS011;19905;53.370;-6.314;2023-02-01T05:37:15;29.98;;;3.42;;
29934;SDS011;19905;53.370;-6.314;2023-02-01T05:39:45;28.98;;;2.90;;
29934;SDS011;19905;53.370;-6.314;2023-02-01T05:42:14;27.23;;;3.30;;
29934;SDS011;19905;53.370;-6.314;2023-02-01T05:44:43;21.58;;;3.00;;
29934;SDS011;19905;53.370;-6.314;2023-02-01T05:47:13;19.15;;;3.47;;
29934;SDS011;19905;53.370;-6.314;2023-02-01T05:49:42;28.30;;;4.13;;
29934;SDS011;19905;53.370;-6.314;2023-02-01T05:52:12;31.70;;;3.65;;
29934;SDS011;19905;53.370;-6.314;2023-02-01T05:54:45;32.20;;;4.22;;
29934;SDS011;19905;53.370;-6.314;2023-02-01T05:57:15;24.80;;;3.17;;
29934;SDS011;19905;53.370;-6.314;2023-02-01T05:59:47;29.27;;;4.03;;
29934;SDS011;19905;53.370;-6.314;2023-02-01T06:02:17;23.17;;;4.05;;
29934;SDS011;19905;53.370;-6.314;2023-02-01T06:04:46;29.48;;;3.92;;
29934;SDS011;19905;53.370;-6.314;2023-02-01T06:07:15;33.72;;;4.20;;
29934;SDS011;19905;53.370;-6.314;2023-02-01T06:09:44;18.10;;;3.33;;
29934;SDS011;19905;53.370;-6.314;2023-02-01T06:12:12;30.35;;;3.67;;
29934;SDS011;19905;53.370;-6.314;2023-02-01T06:14:41;28.45;;;3.60;;
29934;SDS011;19905;53.370;-6.314;2023-02-01T06:17:11;35.60;;;5.03;;
29934;SDS011;19905;53.370;-6.314;2023-02-01T06:19:42;23.83;;;3.22;;
29934;SDS011;19905;53.370;-6.314;2023-02-01T06:22:11;27.55;;;4.05;;
29934;SDS011;19905;53.370;-6.314;2023-02-01T06:24:40;29.30;;;3.75;;
29934;SDS011;19905;53.370;-6.314;2023-02-01T06:27:08;29.45;;;3.22;;
29934;SDS011;19905;53.370;-6.314;2023-02-01T06:29:37;24.85;;;3.63;;
29934;SDS011;19905;53.370;-6.314;2023-02-01T06:32:06;30.77;;;4.07;;
29934;SDS011;19905;53.370;-6.314;2023-02-01T06:34:35;21.92;;;2.70;;
29934;SDS011;19905;53.370;-6.314;2023-02-01T06:37:06;25.55;;;3.53;;
29934;SDS011;19905;53.370;-6.314;2023-02-01T06:39:34;27.42;;;3.47;;
29934;SDS011;19905;53.370;-6.314;2023-02-01T06:42:03;31.63;;;3.97;;
29934;SDS011;19905;53.370;-6.314;2023-02-01T06:44:33;36.08;;;3.63;;
29934;SDS011;19905;53.370;-6.314;2023-02-01T06:49:42;33.03;;;3.85;;
29934;SDS011;19905;53.370;-6.314;2023-02-01T07:02:36;28.40;;;4.03;;
29934;SDS011;19905;53.370;-6.314;2023-02-01T07:35:36;25.40;;;3.50;;
29934;SDS011;19905;53.370;-6.314;2023-02-01T07:38:13;30.85;;;4.15;;
29934;SDS011;19905;53.370;-6.314;2023-02-01T07:44:30;37.10;;;3.72;;
29934;SDS011;19905;53.370;-6.314;2023-02-01T07:53:55;29.23;;;3.72;;
29934;SDS011;19905;53.370;-6.314;2023-02-01T08:08:36;35.72;;;4.18;;
29934;SDS011;19905;53.370;-6.314;2023-02-01T08:26:12;25.30;;;4.13;;
29934;SDS011;19905;53.370;-6.314;2023-02-01T08:28:55;35.47;;;4.00;;
29934;SDS011;19905;53.370;-6.314;2023-02-01T08:40:57;35.83;;;4.18;;
29934;SDS011;19905;53.370;-6.314;2023-02-01T08:59:02;35.13;;;4.15;;
29934;SDS011;19905;53.370;-6.314;2023-02-01T09:01:31;28.35;;;3.75;;
29934;SDS011;19905;53.370;-6.314;2023-02-01T09:04:01;28.65;;;4.45;;
29934;SDS011;19905;53.370;-6.314;2023-02-01T09:06:30;25.38;;;3.80;;
29934;SDS011;19905;53.370;-6.314;2023-02-01T09:08:59;25.48;;;4.32;;
29934;SDS011;19905;53.370;-6.314;2023-02-01T09:11:27;34.50;;;4.10;;
29934;SDS011;19905;53.370;-6.314;2023-02-01T09:13:56;38.25;;;3.95;;
29934;SDS011;19905;53.370;-6.314;2023-02-01T09:30:49;32.33;;;3.95;;
29934;SDS011;19905;53.370;-6.314;2023-02-01T12:52:37;20.45;;;3.33;;
29934;SDS011;19905;53.370;-6.314;2023-02-01T12:55:15;25.90;;;3.47;;
29934;SDS011;19905;53.370;-6.314;2023-02-01T12:57:52;19.65;;;3.38;;
29934;SDS011;19905;53.370;-6.314;2023-02-01T13:00:26;26.10;;;3.10;;
29934;SDS011;19905;53.370;-6.314;2023-02-01T13:03:03;20.10;;;3.28;;
29934;SDS011;19905;53.370;-6.314;2023-02-01T13:05:44;28.73;;;3.35;;
29934;SDS011;19905;53.370;-6.314;2023-02-01T13:08:21;25.00;;;3.25;;
29934;SDS011;19905;53.370;-6.314;2023-02-01T13:10:54;27.58;;;3.78;;
29934;SDS011;19905;53.370;-6.314;2023-02-01T13:13:29;28.58;;;3.20;;
29934;SDS011;19905;53.370;-6.314;2023-02-01T13:16:06;21.65;;;3.17;;
29934;SDS011;19905;53.370;-6.314;2023-02-01T13:18:48;23.35;;;3.38;;
29934;SDS011;19905;53.370;-6.314;2023-02-01T13:21:20;26.73;;;3.75;;
29934;SDS011;19905;53.370;-6.314;2023-02-01T13:23:56;28.98;;;3.45;;
29934;SDS011;19905;53.370;-6.314;2023-02-01T13:26:26;22.85;;;3.95;;
29934;SDS011;19905;53.370;-6.314;2023-02-01T13:28:56;21.33;;;3.78;;
29934;SDS011;19905;53.370;-6.314;2023-02-01T13:31:33;21.77;;;3.00;;
29934;SDS011;19905;53.370;-6.314;2023-02-01T13:37:26;24.33;;;3.20;;
29934;SDS011;19905;53.370;-6.314;2023-02-01T13:40:08;28.55;;;3.42;;
29934;SDS011;19905;53.370;-6.314;2023-02-01T13:42:47;19.73;;;3.38;;
29934;SDS011;19905;53.370;-6.314;2023-02-01T13:45:21;23.95;;;3.70;;
29934;SDS011;19905;53.370;-6.314;2023-02-01T13:47:57;16.92;;;2.45;;
29934;SDS011;19905;53.370;-6.314;2023-02-01T13:50:29;21.35;;;2.70;;
29934;SDS011;19905;53.370;-6.314;2023-02-01T13:53:13;16.10;;;2.75;;
29934;SDS011;19905;53.370;-6.314;2023-02-01T13:55:50;14.82;;;2.40;;
29934;SDS011;19905;53.370;-6.314;2023-02-01T13:58:32;19.88;;;3.05;;
29934;SDS011;19905;53.370;-6.314;2023-02-01T14:01:31;16.35;;;2.10;;
29934;SDS011;19905;53.370;-6.314;2023-02-01T14:04:05;17.02;;;2.47;;
29934;SDS011;19905;53.370;-6.314;2023-02-01T14:06:37;17.48;;;2.00;;
29934;SDS011;19905;53.370;-6.314;2023-02-01T14:09:15;15.82;;;2.42;;
29934;SDS011;19905;53.370;-6.314;2023-02-01T14:11:47;15.40;;;2.40;;
29934;SDS011;19905;53.370;-6.314;2023-02-01T14:23:21;20.27;;;2.80;;
29934;SDS011;19905;53.370;-6.314;2023-02-01T14:26:07;15.60;;;2.60;;
29934;SDS011;19905;53.370;-6.314;2023-02-01T14:28:51;18.52;;;2.60;;
29934;SDS011;19905;53.370;-6.314;2023-02-01T14:31:39;16.67;;;2.38;;
29934;SDS011;19905;53.370;-6.314;2023-02-01T14:34:17;15.90;;;2.53;;
29934;SDS011;19905;53.370;-6.314;2023-02-01T14:36:59;14.15;;;2.50;;
29934;SDS011;19905;53.370;-6.314;2023-02-01T14:39:34;17.67;;;2.75;;
29934;SDS011;19905;53.370;-6.314;2023-02-01T14:42:22;16.27;;;2.70;;
29934;SDS011;19905;53.370;-6.314;2023-02-01T14:44:54;16.60;;;2.72;;
29934;SDS011;19905;53.370;-6.314;2023-02-01T14:47:44;17.23;;;3.05;;
29934;SDS011;19905;53.370;-6.314;2023-02-01T14:50:23;16.17;;;2.70;;
29934;SDS011;19905;53.370;-6.314;2023-02-01T14:53:03;20.95;;;2.65;;
29934;SDS011;19905;53.370;-6.314;2023-02-01T14:55:42;16.20;;;2.38;;
29934;SDS011;19905;53.370;-6.314;2023-02-01T14:58:28;21.88;;;2.50;;
29934;SDS011;19905;53.370;-6.314;2023-02-01T15:01:14;20.63;;;3.70;;
29934;SDS011;19905;53.370;-6.314;2023-02-01T15:03:53;20.30;;;2.88;;
29934;SDS011;19905;53.370;-6.314;2023-02-01T15:06:28;14.43;;;2.38;;
29934;SDS011;19905;53.370;-6.314;2023-02-01T15:09:02;19.80;;;2.85;;
29934;SDS011;19905;53.370;-6.314;2023-02-01T15:14:25;26.42;;;2.70;;
29934;SDS011;19905;53.370;-6.314;2023-02-01T15:16:55;19.90;;;2.67;;
29934;SDS011;19905;53.370;-6.314;2023-02-01T15:19:25;17.85;;;2.67;;
29934;SDS011;19905;53.370;-6.314;2023-02-01T15:21:55;14.55;;;2.83;;
29934;SDS011;19905;53.370;-6.314;2023-02-01T15:24:27;22.35;;;2.83;;
29934;SDS011;19905;53.370;-6.314;2023-02-01T15:27:02;15.50;;;2.65;;
29934;SDS011;19905;53.370;-6.314;2023-02-01T15:29:35;25.80;;;2.85;;
29934;SDS011;19905;53.370;-6.314;2023-02-01T15:32:04;20.73;;;3.22;;
29934;SDS011;19905;53.370;-6.314;2023-02-01T15:34:45;18.92;;;3.15;;
29934;SDS011;19905;53.370;-6.314;2023-02-01T15:37:15;23.13;;;2.92;;
29934;SDS011;19905;53.370;-6.314;2023-02-01T15:40:14;19.10;;;2.60;;
29934;SDS011;19905;53.370;-6.314;2023-02-01T15:42:51;16.98;;;2.72;;
29934;SDS011;19905;53.370;-6.314;2023-02-01T15:45:24;16.85;;;2.70;;
29934;SDS011;19905;53.370;-6.314;2023-02-01T15:47:55;13.73;;;2.10;;
29934;SDS011;19905;53.370;-6.314;2023-02-01T15:50:26;32.10;;;3.45;;
29934;SDS011;19905;53.370;-6.314;2023-02-01T15:52:58;17.02;;;2.95;;
29934;SDS011;19905;53.370;-6.314;2023-02-01T15:55:30;15.15;;;2.22;;
29934;SDS011;19905;53.370;-6.314;2023-02-01T15:58:08;14.88;;;2.50;;
29934;SDS011;19905;53.370;-6.314;2023-02-01T16:00:45;17.75;;;2.38;;
29934;SDS011;19905;53.370;-6.314;2023-02-01T16:03:25;16.52;;;2.50;;
29934;SDS011;19905;53.370;-6.314;2023-02-01T16:05:57;12.98;;;2.38;;
29934;SDS011;19905;53.370;-6.314;2023-02-01T16:08:28;13.40;;;3.05;;
29934;SDS011;19905;53.370;-6.314;2023-02-01T16:11:12;13.77;;;2.03;;
29934;SDS011;19905;53.370;-6.314;2023-02-01T16:13:54;17.92;;;2.58;;
29934;SDS011;19905;53.370;-6.314;2023-02-01T16:16:25;11.73;;;2.08;;
29934;SDS011;19905;53.370;-6.314;2023-02-01T16:18:55;7.38;;;2.00;;
29934;SDS011;19905;53.370;-6.314;2023-02-01T16:21:24;12.65;;;3.10;;
29934;SDS011;19905;53.370;-6.314;2023-02-01T16:23:52;9.18;;;1.65;;
29934;SDS011;19905;53.370;-6.314;2023-02-01T16:26:22;12.20;;;2.28;;
29934;SDS011;19905;53.370;-6.314;2023-02-01T16:28:51;13.82;;;2.38;;
29934;SDS011;19905;53.370;-6.314;2023-02-01T16:31:21;10.18;;;2.05;;
29934;SDS011;19905;53.370;-6.314;2023-02-01T16:33:57;12.75;;;2.15;;
29934;SDS011;19905;53.370;-6.314;2023-02-01T16:36:25;20.08;;;3.13;;
29934;SDS011;19905;53.370;-6.314;2023-02-01T16:38:55;13.60;;;2.55;;
29934;SDS011;19905;53.370;-6.314;2023-02-01T16:41:24;15.65;;;2.20;;
29934;SDS011;19905;53.370;-6.314;2023-02-01T16:43:54;15.93;;;2.38;;
29934;SDS011;19905;53.370;-6.314;2023-02-01T16:46:24;12.38;;;2.50;;
29934;SDS011;19905;53.370;-6.314;2023-02-01T16:48:57;14.65;;;2.60;;
29934;SDS011;19905;53.370;-6.314;2023-02-01T16:51:29;19.83;;;2.92;;
29934;SDS011;19905;53.370;-6.314;2023-02-01T16:53:59;13.93;;;2.47;;
29934;SDS011;19905;53.370;-6.314;2023-02-01T16:56:29;16.55;;;3.05;;
29934;SDS011;19905;53.370;-6.314;2023-02-01T16:59:00;14.48;;;3.30;;
29934;SDS011;19905;53.370;-6.314;2023-02-01T17:01:31;18.10;;;3.17;;
29934;SDS011;19905;53.370;-6.314;2023-02-01T17:04:00;18.20;;;3.38;;
29934;SDS011;19905;53.370;-6.314;2023-02-01T17:06:29;16.20;;;3.22;;
29934;SDS011;19905;53.370;-6.314;2023-02-01T17:08:59;20.50;;;3.88;;
29934;SDS011;19905;53.370;-6.314;2023-02-01T17:11:30;16.02;;;3.10;;
29934;SDS011;19905;53.370;-6.314;2023-02-01T17:14:00;16.77;;;2.92;;
29934;SDS011;19905;53.370;-6.314;2023-02-01T17:16:39;24.52;;;3.75;;
29934;SDS011;19905;53.370;-6.314;2023-02-01T17:19:10;17.58;;;3.63;;
29934;SDS011;19905;53.370;-6.314;2023-02-01T17:21:43;20.90;;;3.50;;
29934;SDS011;19905;53.370;-6.314;2023-02-01T17:24:15;11.27;;;2.63;;
29934;SDS011;19905;53.370;-6.314;2023-02-01T17:26:45;22.98;;;3.90;;
29934;SDS011;19905;53.370;-6.314;2023-02-01T17:29:16;24.20;;;2.78;;
29934;SDS011;19905;53.370;-6.314;2023-02-01T17:31:47;15.00;;;3.42;;
29934;SDS011;19905;53.370;-6.314;2023-02-01T17:34:18;15.18;;;2.95;;
29934;SDS011;19905;53.370;-6.314;2023-02-01T17:36:46;20.35;;;4.07;;
29934;SDS011;19905;53.370;-6.314;2023-02-01T17:39:16;17.00;;;3.58;;
29934;SDS011;19905;53.370;-6.314;2023-02-01T17:41:58;14.05;;;2.85;;
29934;SDS011;19905;53.370;-6.314;2023-02-01T17:44:28;23.70;;;3.45;;
29934;SDS011;19905;53.370;-6.314;2023-02-01T17:46:59;15.13;;;3.60;;
29934;SDS011;19905;53.370;-6.314;2023-02-01T17:49:27;20.42;;;3.40;;
29934;SDS011;19905;53.370;-6.314;2023-02-01T17:51:56;17.88;;;3.10;;
29934;SDS011;19905;53.370;-6.314;2023-02-01T17:54:25;23.40;;;3.45;;
29934;SDS011;19905;53.370;-6.314;2023-02-01T17:56:54;18.98;;;3.13;;
29934;SDS011;19905;53.370;-6.314;2023-02-01T17:59:25;23.63;;;4.28;;
29934;SDS011;19905;53.370;-6.314;2023-02-01T18:01:54;23.52;;;3.22;;
29934;SDS011;19905;53.370;-6.314;2023-02-01T18:04:28;22.67;;;4.32;;
29934;SDS011;19905;53.370;-6.314;2023-02-01T18:06:57;23.77;;;4.25;;
29934;SDS011;19905;53.370;-6.314;2023-02-01T18:09:26;19.33;;;3.25;;
29934;SDS011;19905;53.370;-6.314;2023-02-01T18:11:54;15.32;;;3.75;;
29934;SDS011;19905;53.370;-6.314;2023-02-01T18:14:23;20.20;;;3.85;;
29934;SDS011;19905;53.370;-6.314;2023-02-01T18:16:52;17.08;;;2.72;;
29934;SDS011;19905;53.370;-6.314;2023-02-01T18:19:21;25.58;;;4.53;;
29934;SDS011;19905;53.370;-6.314;2023-02-01T18:21:51;24.02;;;4.50;;
29934;SDS011;19905;53.370;-6.314;2023-02-01T18:24:19;18.38;;;3.40;;
29934;SDS011;19905;53.370;-6.314;2023-02-01T18:26:54;17.50;;;4.43;;
29934;SDS011;19905;53.370;-6.314;2023-02-01T18:29:22;21.50;;;4.03;;
29934;SDS011;19905;53.370;-6.314;2023-02-01T18:31:52;18.60;;;3.65;;
29934;SDS011;19905;53.370;-6.314;2023-02-01T18:34:22;16.92;;;3.10;;
29934;SDS011;19905;53.370;-6.314;2023-02-01T18:36:54;18.95;;;3.72;;
29934;SDS011;19905;53.370;-6.314;2023-02-01T18:39:23;21.88;;;4.30;;
29934;SDS011;19905;53.370;-6.314;2023-02-01T18:41:51;19.25;;;5.18;;
29934;SDS011;19905;53.370;-6.314;2023-02-01T18:44:20;22.05;;;3.53;;
29934;SDS011;19905;53.370;-6.314;2023-02-01T18:46:50;21.15;;;4.35;;
29934;SDS011;19905;53.370;-6.314;2023-02-01T18:49:18;29.27;;;5.80;;
29934;SDS011;19905;53.370;-6.314;2023-02-01T18:51:47;21.85;;;4.82;;
29934;SDS011;19905;53.370;-6.314;2023-02-01T18:54:19;29.55;;;5.05;;
29934;SDS011;19905;53.370;-6.314;2023-02-01T18:56:51;23.90;;;4.80;;
29934;SDS011;19905;53.370;-6.314;2023-02-01T18:59:19;28.75;;;4.93;;
29934;SDS011;19905;53.370;-6.314;2023-02-01T19:01:48;26.80;;;4.82;;
29934;SDS011;19905;53.370;-6.314;2023-02-01T19:04:16;27.02;;;4.63;;
29934;SDS011;19905;53.370;-6.314;2023-02-01T19:06:51;25.05;;;4.50;;
29934;SDS011;19905;53.370;-6.314;2023-02-01T19:09:21;23.13;;;4.95;;
29934;SDS011;19905;53.370;-6.314;2023-02-01T19:11:49;27.17;;;7.07;;
29934;SDS011;19905;53.370;-6.314;2023-02-01T19:14:18;26.90;;;5.70;;
29934;SDS011;19905;53.370;-6.314;2023-02-01T19:16:47;20.77;;;4.07;;
29934;SDS011;19905;53.370;-6.314;2023-02-01T19:19:29;21.38;;;4.38;;
29934;SDS011;19905;53.370;-6.314;2023-02-01T19:21:58;21.60;;;4.00;;
29934;SDS011;19905;53.370;-6.314;2023-02-01T19:24:28;24.77;;;3.95;;
29934;SDS011;19905;53.370;-6.314;2023-02-01T19:26:56;25.45;;;3.50;;
29934;SDS011;19905;53.370;-6.314;2023-02-01T19:29:25;20.02;;;3.60;;
29934;SDS011;19905;53.370;-6.314;2023-02-01T19:31:55;22.40;;;3.50;;
29934;SDS011;19905;53.370;-6.314;2023-02-01T19:34:24;19.27;;;3.97;;
29934;SDS011;19905;53.370;-6.314;2023-02-01T19:36:52;28.25;;;4.35;;
29934;SDS011;19905;53.370;-6.314;2023-02-01T19:39:21;23.92;;;4.15;;
29934;SDS011;19905;53.370;-6.314;2023-02-01T19:41:52;23.35;;;4.03;;
29934;SDS011;19905;53.370;-6.314;2023-02-01T19:44:21;23.58;;;3.80;;
29934;SDS011;19905;53.370;-6.314;2023-02-01T19:46:49;22.05;;;3.42;;
29934;SDS011;19905;53.370;-6.314;2023-02-01T19:49:18;24.40;;;3.70;;
29934;SDS011;19905;53.370;-6.314;2023-02-01T19:51:46;13.82;;;3.30;;
29934;SDS011;19905;53.370;-6.314;2023-02-01T19:54:15;21.23;;;3.97;;
29934;SDS011;19905;53.370;-6.314;2023-02-01T19:56:44;20.13;;;3.80;;
29934;SDS011;19905;53.370;-6.314;2023-02-01T19:59:16;17.75;;;3.13;;
29934;SDS011;19905;53.370;-6.314;2023-02-01T20:01:49;22.33;;;3.60;;
29934;SDS011;19905;53.370;-6.314;2023-02-01T20:04:18;19.90;;;3.83;;
29934;SDS011;19905;53.370;-6.314;2023-02-01T20:06:47;16.58;;;4.03;;
29934;SDS011;19905;53.370;-6.314;2023-02-01T20:09:17;19.17;;;4.30;;
29934;SDS011;19905;53.370;-6.314;2023-02-01T20:11:48;17.05;;;3.45;;
29934;SDS011;19905;53.370;-6.314;2023-02-01T20:14:21;21.00;;;5.35;;
29934;SDS011;19905;53.370;-6.314;2023-02-01T20:16:53;24.85;;;5.00;;
29934;SDS011;19905;53.370;-6.314;2023-02-01T20:19:22;23.90;;;5.10;;
29934;SDS011;19905;53.370;-6.314;2023-02-01T20:21:50;23.13;;;4.63;;
29934;SDS011;19905;53.370;-6.314;2023-02-01T20:24:19;20.42;;;4.60;;
29934;SDS011;19905;53.370;-6.314;2023-02-01T20:26:47;30.45;;;7.05;;
29934;SDS011;19905;53.370;-6.314;2023-02-01T20:29:16;28.65;;;4.80;;
29934;SDS011;19905;53.370;-6.314;2023-02-01T20:31:47;27.40;;;5.47;;
29934;SDS011;19905;53.370;-6.314;2023-02-01T20:34:15;19.75;;;4.40;;